sensor_id;sensor_type;location;lat;lon;timestamp;pressure;altitude;pressure_sealevel;temperature;humidity
78625;BME280;67944;0.000;0.000;2023-07-09T00:00:51;100898.28;;;28.47;32.05
78625;BME280;67944;0.000;0.000;2023-07-09T00:03:18;100897.69;;;28.45;31.90
78625;BME280;67944;0.000;0.000;2023-07-09T00:05:47;100898.72;;;28.44;31.93
78625;BME280;67944;0.000;0.000;2023-07-09T00:08:28;100897.91;;;28.44;31.98
78625;BME280;67944;0.000;0.000;2023-07-09T00:10:58;100900.78;;;28.42;31.83
78625;BME280;67944;0.000;0.000;2023-07-09T00:13:25;100897.31;;;28.42;32.05
78625;BME280;67944;0.000;0.000;2023-07-09T00:15:52;100898.34;;;28.41;31.76
78625;BME280;67944;0.000;0.000;2023-07-09T00:18:18;100909.28;;;28.39;31.83
78625;BME280;67944;0.000;0.000;2023-07-09T00:20:44;100913.00;;;28.38;31.98
78625;BME280;67944;0.000;0.000;2023-07-09T00:23:10;100911.34;;;28.37;32.13
78625;BME280;67944;0.000;0.000;2023-07-09T00:25:40;100916.97;;;28.36;32.10
78625;BME280;67944;0.000;0.000;2023-07-09T00:28:16;100920.69;;;28.35;32.02
78625;BME280;67944;0.000;0.000;2023-07-09T00:30:46;100927.91;;;28.34;32.13
78625;BME280;67944;0.000;0.000;2023-07-09T00:33:13;100914.72;;;28.33;32.17
78625;BME280;67944;0.000;0.000;2023-07-09T00:35:46;100920.28;;;28.31;32.21
78625;BME280;67944;0.000;0.000;2023-07-09T00:38:21;100921.34;;;28.30;32.30
78625;BME280;67944;0.000;0.000;2023-07-09T00:43:29;100926.31;;;28.26;32.01
78625;BME280;67944;0.000;0.000;2023-07-09T00:48:40;100927.34;;;28.25;32.27
78625;BME280;67944;0.000;0.000;2023-07-09T00:51:13;100928.38;;;28.24;32.15
78625;BME280;67944;0.000;0.000;2023-07-09T00:53:43;100926.97;;;28.22;32.21
78625;BME280;67944;0.000;0.000;2023-07-09T00:56:18;100924.28;;;28.22;32.56
78625;BME280;67944;0.000;0.000;2023-07-09T00:58:50;100933.34;;;28.21;32.37
78625;BME280;67944;0.000;0.000;2023-07-09T01:01:18;100934.38;;;28.20;32.21
78625;BME280;67944;0.000;0.000;2023-07-09T01:03:47;100937.25;;;28.18;32.38
78625;BME280;67944;0.000;0.000;2023-07-09T01:06:20;100928.63;;;28.16;32.48
78625;BME280;67944;0.000;0.000;2023-07-09T01:08:49;100930.47;;;28.16;32.48
78625;BME280;67944;0.000;0.000;2023-07-09T01:11:21;100938.75;;;28.14;32.21
78625;BME280;67944;0.000;0.000;2023-07-09T01:13:51;100934.44;;;28.13;32.25
78625;BME280;67944;0.000;0.000;2023-07-09T01:16:19;100935.47;;;28.12;32.69
78625;BME280;67944;0.000;0.000;2023-07-09T01:18:49;100930.34;;;28.11;32.62
78625;BME280;67944;0.000;0.000;2023-07-09T01:21:15;100927.66;;;28.11;32.75
78625;BME280;67944;0.000;0.000;2023-07-09T01:23:45;100940.22;;;28.10;32.53
78625;BME280;67944;0.000;0.000;2023-07-09T01:26:14;100935.09;;;28.09;32.53
78625;BME280;67944;0.000;0.000;2023-07-09T01:28:41;100939.63;;;28.08;32.93
78625;BME280;67944;0.000;0.000;2023-07-09T01:31:14;100937.16;;;28.07;32.71
78625;BME280;67944;0.000;0.000;2023-07-09T01:33:41;100935.53;;;28.06;32.58
78625;BME280;67944;0.000;0.000;2023-07-09T01:36:12;100941.09;;;28.04;32.63
78625;BME280;67944;0.000;0.000;2023-07-09T01:38:40;100942.94;;;28.04;32.71
78625;BME280;67944;0.000;0.000;2023-07-09T01:41:06;100940.47;;;28.02;32.66
78625;BME280;67944;0.000;0.000;2023-07-09T01:43:32;100941.53;;;28.01;32.72
78625;BME280;67944;0.000;0.000;2023-07-09T01:45:58;100936.38;;;27.99;32.92
78625;BME280;67944;0.000;0.000;2023-07-09T01:48:25;100938.25;;;27.99;32.73
78625;BME280;67944;0.000;0.000;2023-07-09T01:50:53;100941.75;;;27.99;32.62
78625;BME280;67944;0.000;0.000;2023-07-09T01:53:23;100940.31;;;27.97;32.32
78625;BME280;67944;0.000;0.000;2023-07-09T01:55:50;100943.00;;;27.97;32.79
78625;BME280;67944;0.000;0.000;2023-07-09T01:58:16;100945.06;;;27.95;32.65
78625;BME280;67944;0.000;0.000;2023-07-09T02:00:42;100945.06;;;27.95;32.69
78625;BME280;67944;0.000;0.000;2023-07-09T02:03:09;100936.44;;;27.93;32.67
78625;BME280;67944;0.000;0.000;2023-07-09T02:05:36;100932.97;;;27.92;32.96
78625;BME280;67944;0.000;0.000;2023-07-09T02:08:02;100936.88;;;27.90;33.01
78625;BME280;67944;0.000;0.000;2023-07-09T02:10:28;100933.38;;;27.89;32.98
78625;BME280;67944;0.000;0.000;2023-07-09T02:12:53;100934.22;;;27.90;32.86
78625;BME280;67944;0.000;0.000;2023-07-09T02:15:19;100937.91;;;27.89;33.02
78625;BME280;67944;0.000;0.000;2023-07-09T02:17:45;100935.47;;;27.87;32.92
78625;BME280;67944;0.000;0.000;2023-07-09T02:20:12;100941.03;;;27.86;33.04
78625;BME280;67944;0.000;0.000;2023-07-09T02:22:39;100938.34;;;27.86;32.80
78625;BME280;67944;0.000;0.000;2023-07-09T02:25:06;100933.22;;;27.84;33.21
78625;BME280;67944;0.000;0.000;2023-07-09T02:27:32;100932.59;;;27.82;33.22
78625;BME280;67944;0.000;0.000;2023-07-09T02:29:58;100926.44;;;27.82;32.88
78625;BME280;67944;0.000;0.000;2023-07-09T02:32:26;100936.31;;;27.81;33.01
78625;BME280;67944;0.000;0.000;2023-07-09T02:34:53;100926.66;;;27.80;33.45
78625;BME280;67944;0.000;0.000;2023-07-09T02:37:21;100935.72;;;27.79;33.13
78625;BME280;67944;0.000;0.000;2023-07-09T02:39:47;100932.22;;;27.79;33.25
78625;BME280;67944;0.000;0.000;2023-07-09T02:42:15;100938.59;;;27.78;32.91
78625;BME280;67944;0.000;0.000;2023-07-09T02:44:42;100935.09;;;27.77;33.02
78625;BME280;67944;0.000;0.000;2023-07-09T02:47:08;100938.00;;;27.76;33.21
78625;BME280;67944;0.000;0.000;2023-07-09T02:49:34;100938.00;;;27.76;33.33
78625;BME280;67944;0.000;0.000;2023-07-09T02:52:00;100939.03;;;27.75;33.38
78625;BME280;67944;0.000;0.000;2023-07-09T02:54:25;100932.03;;;27.74;33.03
78625;BME280;67944;0.000;0.000;2023-07-09T02:56:51;100935.75;;;27.73;33.33
78625;BME280;67944;0.000;0.000;2023-07-09T02:59:17;100941.09;;;27.73;33.40
78625;BME280;67944;0.000;0.000;2023-07-09T03:01:42;100943.19;;;27.71;33.72
78625;BME280;67944;0.000;0.000;2023-07-09T03:04:08;100936.19;;;27.70;33.38
78625;BME280;67944;0.000;0.000;2023-07-09T03:06:35;100938.06;;;27.69;33.56
78625;BME280;67944;0.000;0.000;2023-07-09T03:09:03;100942.81;;;27.67;33.23
78625;BME280;67944;0.000;0.000;2023-07-09T03:11:31;100944.66;;;27.67;32.97
78625;BME280;67944;0.000;0.000;2023-07-09T03:13:58;100946.50;;;27.66;33.41
78625;BME280;67944;0.000;0.000;2023-07-09T03:16:29;100945.69;;;27.66;33.26
78625;BME280;67944;0.000;0.000;2023-07-09T03:18:55;100950.22;;;27.65;33.42
78625;BME280;67944;0.000;0.000;2023-07-09T03:21:22;100954.75;;;27.64;33.50
78625;BME280;67944;0.000;0.000;2023-07-09T03:23:48;100959.28;;;27.64;33.69
78625;BME280;67944;0.000;0.000;2023-07-09T03:26:13;100957.66;;;27.63;33.57
78625;BME280;67944;0.000;0.000;2023-07-09T03:28:40;100964.84;;;27.62;33.52
78625;BME280;67944;0.000;0.000;2023-07-09T03:31:06;100965.06;;;27.61;33.39
78625;BME280;67944;0.000;0.000;2023-07-09T03:33:31;100967.94;;;27.59;33.31
78625;BME280;67944;0.000;0.000;2023-07-09T03:35:57;100968.16;;;27.58;33.62
78625;BME280;67944;0.000;0.000;2023-07-09T03:38:22;100970.03;;;27.57;33.43
78625;BME280;67944;0.000;0.000;2023-07-09T03:40:55;100967.34;;;27.57;33.48
78625;BME280;67944;0.000;0.000;2023-07-09T03:43:21;100974.53;;;27.57;33.50
78625;BME280;67944;0.000;0.000;2023-07-09T03:45:48;100968.34;;;27.56;33.78
78625;BME280;67944;0.000;0.000;2023-07-09T03:48:15;100977.41;;;27.55;33.80
78625;BME280;67944;0.000;0.000;2023-07-09T03:50:42;100976.59;;;27.55;33.36
78625;BME280;67944;0.000;0.000;2023-07-09T03:53:08;100983.78;;;27.54;33.49
78625;BME280;67944;0.000;0.000;2023-07-09T03:55:34;100992.84;;;27.53;33.57
78625;BME280;67944;0.000;0.000;2023-07-09T03:57:59;100988.53;;;27.52;33.83
78625;BME280;67944;0.000;0.000;2023-07-09T04:00:25;100987.72;;;27.52;33.56
78625;BME280;67944;0.000;0.000;2023-07-09T04:02:51;100981.53;;;27.51;33.75
78625;BME280;67944;0.000;0.000;2023-07-09T04:05:17;100985.25;;;27.50;33.72
78625;BME280;67944;0.000;0.000;2023-07-09T04:07:43;100987.09;;;27.50;33.82
78625;BME280;67944;0.000;0.000;2023-07-09T04:10:09;100989.78;;;27.50;33.41
78625;BME280;67944;0.000;0.000;2023-07-09T04:12:35;100990.84;;;27.49;33.82
78625;BME280;67944;0.000;0.000;2023-07-09T04:15:03;100990.00;;;27.48;33.78
78625;BME280;67944;0.000;0.000;2023-07-09T04:17:29;100991.88;;;27.48;33.91
78625;BME280;67944;0.000;0.000;2023-07-09T04:19:55;100990.00;;;27.48;33.83
78625;BME280;67944;0.000;0.000;2023-07-09T04:22:20;100991.06;;;27.47;33.87
78625;BME280;67944;0.000;0.000;2023-07-09T04:24:46;100992.69;;;27.48;33.68
78625;BME280;67944;0.000;0.000;2023-07-09T04:27:12;100984.66;;;27.48;33.88
78625;BME280;67944;0.000;0.000;2023-07-09T04:29:39;100987.34;;;27.48;33.93
78625;BME280;67944;0.000;0.000;2023-07-09T04:32:07;100994.34;;;27.49;33.94
78625;BME280;67944;0.000;0.000;2023-07-09T04:34:33;100991.88;;;27.48;33.58
78625;BME280;67944;0.000;0.000;2023-07-09T04:36:58;100991.06;;;27.47;33.94
78625;BME280;67944;0.000;0.000;2023-07-09T04:39:24;100990.22;;;27.47;33.72
78625;BME280;67944;0.000;0.000;2023-07-09T04:41:49;100987.75;;;27.45;33.72
78625;BME280;67944;0.000;0.000;2023-07-09T04:44:15;100993.13;;;27.45;33.90
78625;BME280;67944;0.000;0.000;2023-07-09T04:46:40;100997.66;;;27.45;33.81
78625;BME280;67944;0.000;0.000;2023-07-09T04:49:06;100994.16;;;27.44;33.61
78625;BME280;67944;0.000;0.000;2023-07-09T04:51:32;100997.66;;;27.45;33.80
78625;BME280;67944;0.000;0.000;2023-07-09T04:53:59;100997.66;;;27.45;34.05
78625;BME280;67944;0.000;0.000;2023-07-09T04:56:28;101000.53;;;27.43;33.96
78625;BME280;67944;0.000;0.000;2023-07-09T04:58:55;101000.53;;;27.43;34.02
78625;BME280;67944;0.000;0.000;2023-07-09T05:01:20;100994.34;;;27.43;33.77
78625;BME280;67944;0.000;0.000;2023-07-09T05:03:46;101003.41;;;27.42;33.66
78625;BME280;67944;0.000;0.000;2023-07-09T05:06:11;101011.22;;;27.43;33.78
78625;BME280;67944;0.000;0.000;2023-07-09T05:08:37;101016.78;;;27.42;33.61
78625;BME280;67944;0.000;0.000;2023-07-09T05:11:02;101017.63;;;27.42;34.13
78625;BME280;67944;0.000;0.000;2023-07-09T05:13:27;101020.28;;;27.42;33.58
78625;BME280;67944;0.000;0.000;2023-07-09T05:15:53;101021.09;;;27.43;33.86
78625;BME280;67944;0.000;0.000;2023-07-09T05:18:19;101016.78;;;27.42;33.62
78625;BME280;67944;0.000;0.000;2023-07-09T05:20:47;101022.13;;;27.42;33.95
78625;BME280;67944;0.000;0.000;2023-07-09T05:23:12;101021.31;;;27.41;33.84
78625;BME280;67944;0.000;0.000;2023-07-09T05:25:38;101023.16;;;27.41;33.95
78625;BME280;67944;0.000;0.000;2023-07-09T05:28:04;101034.69;;;27.41;33.98
78625;BME280;67944;0.000;0.000;2023-07-09T05:30:31;101032.03;;;27.41;33.82
78625;BME280;67944;0.000;0.000;2023-07-09T05:32:56;101025.63;;;27.42;33.66
78625;BME280;67944;0.000;0.000;2023-07-09T05:35:25;101025.63;;;27.42;33.99
78625;BME280;67944;0.000;0.000;2023-07-09T05:37:54;101024.00;;;27.41;33.92
78625;BME280;67944;0.000;0.000;2023-07-09T05:40:21;101020.28;;;27.42;34.05
78625;BME280;67944;0.000;0.000;2023-07-09T05:42:47;101020.28;;;27.42;33.65
78625;BME280;67944;0.000;0.000;2023-07-09T05:45:13;101014.94;;;27.42;34.06
78625;BME280;67944;0.000;0.000;2023-07-09T05:47:39;101002.38;;;27.43;34.16
78625;BME280;67944;0.000;0.000;2023-07-09T05:50:05;101006.91;;;27.42;34.39
78625;BME280;67944;0.000;0.000;2023-07-09T05:52:31;101015.75;;;27.43;34.23
78625;BME280;67944;0.000;0.000;2023-07-09T05:54:56;101016.56;;;27.43;34.19
78625;BME280;67944;0.000;0.000;2023-07-09T05:57:22;101019.25;;;27.43;34.31
78625;BME280;67944;0.000;0.000;2023-07-09T05:59:47;101014.72;;;27.44;34.14
78625;BME280;67944;0.000;0.000;2023-07-09T06:02:15;101025.44;;;27.44;34.29
78625;BME280;67944;0.000;0.000;2023-07-09T06:04:41;101027.28;;;27.43;34.22
78625;BME280;67944;0.000;0.000;2023-07-09T06:07:08;101016.56;;;27.43;34.16
78625;BME280;67944;0.000;0.000;2023-07-09T06:09:35;101017.63;;;27.42;34.05
78625;BME280;67944;0.000;0.000;2023-07-09T06:12:01;101018.44;;;27.43;34.29
78625;BME280;67944;0.000;0.000;2023-07-09T06:14:27;101021.94;;;27.43;34.22
78625;BME280;67944;0.000;0.000;2023-07-09T06:16:52;101020.06;;;27.44;34.13
78625;BME280;67944;0.000;0.000;2023-07-09T06:19:18;101010.19;;;27.44;34.01
78625;BME280;67944;0.000;0.000;2023-07-09T06:21:43;101007.53;;;27.44;34.19
78625;BME280;67944;0.000;0.000;2023-07-09T06:24:09;101018.22;;;27.44;33.87
78625;BME280;67944;0.000;0.000;2023-07-09T06:26:35;101027.91;;;27.45;34.40
78625;BME280;67944;0.000;0.000;2023-07-09T06:29:01;101021.50;;;27.46;34.01
78625;BME280;67944;0.000;0.000;2023-07-09T06:31:26;101025.00;;;27.47;34.11
78625;BME280;67944;0.000;0.000;2023-07-09T06:33:52;101023.97;;;27.48;34.00
78625;BME280;67944;0.000;0.000;2023-07-09T06:36:19;101033.66;;;27.49;34.09
78625;BME280;67944;0.000;0.000;2023-07-09T06:38:44;101032.59;;;27.50;34.35
78625;BME280;67944;0.000;0.000;2023-07-09T06:41:11;101032.38;;;27.51;34.29
78625;BME280;67944;0.000;0.000;2023-07-09T06:43:37;101029.69;;;27.51;34.21
78625;BME280;67944;0.000;0.000;2023-07-09T06:46:07;101041.00;;;27.53;34.29
78625;BME280;67944;0.000;0.000;2023-07-09T06:48:34;101036.47;;;27.54;34.55
78625;BME280;67944;0.000;0.000;2023-07-09T06:51:01;101037.09;;;27.56;34.32
78625;BME280;67944;0.000;0.000;2023-07-09T06:53:28;101032.56;;;27.56;34.01
78625;BME280;67944;0.000;0.000;2023-07-09T06:55:54;101031.34;;;27.59;34.11
78625;BME280;67944;0.000;0.000;2023-07-09T06:58:22;101026.81;;;27.59;34.44
78625;BME280;67944;0.000;0.000;2023-07-09T07:00:49;101026.63;;;27.61;34.39
78625;BME280;67944;0.000;0.000;2023-07-09T07:03:15;101027.22;;;27.63;34.07
78625;BME280;67944;0.000;0.000;2023-07-09T07:05:45;101037.50;;;27.66;34.17
78625;BME280;67944;0.000;0.000;2023-07-09T07:08:14;101030.31;;;27.67;34.24
78625;BME280;67944;0.000;0.000;2023-07-09T07:10:40;101034.63;;;27.68;34.09
78625;BME280;67944;0.000;0.000;2023-07-09T07:13:05;101031.53;;;27.71;34.50
78625;BME280;67944;0.000;0.000;2023-07-09T07:15:31;101026.16;;;27.71;34.14
78625;BME280;67944;0.000;0.000;2023-07-09T07:17:56;101019.75;;;27.72;34.13
78625;BME280;67944;0.000;0.000;2023-07-09T07:20:22;101023.03;;;27.74;33.93
78625;BME280;67944;0.000;0.000;2023-07-09T07:22:48;101023.66;;;27.76;34.03
78625;BME280;67944;0.000;0.000;2023-07-09T07:25:14;101022.59;;;27.77;33.92
78625;BME280;67944;0.000;0.000;2023-07-09T07:27:39;101021.56;;;27.78;34.37
78625;BME280;67944;0.000;0.000;2023-07-09T07:30:06;101019.72;;;27.78;34.15
78625;BME280;67944;0.000;0.000;2023-07-09T07:32:37;101016.84;;;27.80;34.45
78625;BME280;67944;0.000;0.000;2023-07-09T07:35:03;101010.44;;;27.81;34.17
78625;BME280;67944;0.000;0.000;2023-07-09T07:37:29;101015.59;;;27.82;34.00
78625;BME280;67944;0.000;0.000;2023-07-09T07:39:54;101011.06;;;27.83;34.07
78625;BME280;67944;0.000;0.000;2023-07-09T07:42:20;101014.34;;;27.85;34.12
78625;BME280;67944;0.000;0.000;2023-07-09T07:44:45;101014.94;;;27.87;34.20
78625;BME280;67944;0.000;0.000;2023-07-09T07:47:11;101004.25;;;27.87;34.03
78625;BME280;67944;0.000;0.000;2023-07-09T07:49:37;101005.66;;;27.89;34.14
78625;BME280;67944;0.000;0.000;2023-07-09T07:52:03;101009.16;;;27.90;34.05
78625;BME280;67944;0.000;0.000;2023-07-09T07:54:29;101005.25;;;27.92;34.00
78625;BME280;67944;0.000;0.000;2023-07-09T07:56:57;101006.84;;;27.93;34.16
78625;BME280;67944;0.000;0.000;2023-07-09T07:59:23;101004.78;;;27.95;34.21
78625;BME280;67944;0.000;0.000;2023-07-09T08:01:49;100997.56;;;27.96;33.93
78625;BME280;67944;0.000;0.000;2023-07-09T08:04:15;100996.31;;;27.98;34.00
78625;BME280;67944;0.000;0.000;2023-07-09T08:06:40;101002.28;;;28.01;33.83
78625;BME280;67944;0.000;0.000;2023-07-09T08:09:06;101005.56;;;28.03;33.97
78625;BME280;67944;0.000;0.000;2023-07-09T08:11:31;101000.81;;;28.05;33.99
78625;BME280;67944;0.000;0.000;2023-07-09T08:13:58;101005.75;;;28.08;34.09
78625;BME280;67944;0.000;0.000;2023-07-09T08:16:23;101000.19;;;28.09;34.02
78625;BME280;67944;0.000;0.000;2023-07-09T08:18:49;100999.75;;;28.12;33.91
78625;BME280;67944;0.000;0.000;2023-07-09T08:21:17;101003.03;;;28.14;33.90
78625;BME280;67944;0.000;0.000;2023-07-09T08:23:42;100999.28;;;28.15;34.12
78625;BME280;67944;0.000;0.000;2023-07-09T08:26:08;100990.22;;;28.16;33.82
78625;BME280;67944;0.000;0.000;2023-07-09T08:28:34;100990.81;;;28.18;33.98
78625;BME280;67944;0.000;0.000;2023-07-09T08:31:00;100986.09;;;28.20;34.01
78625;BME280;67944;0.000;0.000;2023-07-09T08:33:26;100982.16;;;28.23;33.87
78625;BME280;67944;0.000;0.000;2023-07-09T08:35:53;100987.31;;;28.24;33.55
78625;BME280;67944;0.000;0.000;2023-07-09T08:38:20;100987.09;;;28.26;33.68
78625;BME280;67944;0.000;0.000;2023-07-09T08:40:58;100989.34;;;28.29;33.65
78625;BME280;67944;0.000;0.000;2023-07-09T08:43:35;100991.81;;;28.30;33.82
78625;BME280;67944;0.000;0.000;2023-07-09T08:48:53;100987.44;;;28.36;33.56
78625;BME280;67944;0.000;0.000;2023-07-09T08:51:28;100986.38;;;28.37;33.71
78625;BME280;67944;0.000;0.000;2023-07-09T08:53:58;100986.97;;;28.39;33.50
78625;BME280;67944;0.000;0.000;2023-07-09T08:56:25;100987.56;;;28.41;33.43
78625;BME280;67944;0.000;0.000;2023-07-09T08:58:55;100987.13;;;28.44;33.74
78625;BME280;67944;0.000;0.000;2023-07-09T09:01:26;100985.06;;;28.46;33.62
78625;BME280;67944;0.000;0.000;2023-07-09T09:04:27;100980.31;;;28.48;33.54
78625;BME280;67944;0.000;0.000;2023-07-09T09:09:40;100985.00;;;28.53;33.70
78625;BME280;67944;0.000;0.000;2023-07-09T09:12:18;100980.25;;;28.55;33.30
78625;BME280;67944;0.000;0.000;2023-07-09T09:14:58;100983.28;;;28.58;33.46
78625;BME280;67944;0.000;0.000;2023-07-09T09:17:25;100977.72;;;28.60;33.37
78625;BME280;67944;0.000;0.000;2023-07-09T09:19:56;100985.31;;;28.63;33.59
78625;BME280;67944;0.000;0.000;2023-07-09T09:22:27;100984.88;;;28.66;33.30
78625;BME280;67944;0.000;0.000;2023-07-09T09:25:03;100974.75;;;28.68;33.19
78625;BME280;67944;0.000;0.000;2023-07-09T09:27:29;100976.19;;;28.71;32.95
78625;BME280;67944;0.000;0.000;2023-07-09T09:29:55;100971.41;;;28.73;33.03
78625;BME280;67944;0.000;0.000;2023-07-09T09:32:27;100967.47;;;28.75;32.88
78625;BME280;67944;0.000;0.000;2023-07-09T09:34:53;100967.03;;;28.78;33.08
78625;BME280;67944;0.000;0.000;2023-07-09T09:37:26;100963.91;;;28.81;32.77
78625;BME280;67944;0.000;0.000;2023-07-09T09:39:53;100961.00;;;28.83;32.79
78625;BME280;67944;0.000;0.000;2023-07-09T09:42:18;100965.94;;;28.86;32.79
78625;BME280;67944;0.000;0.000;2023-07-09T09:44:45;100972.94;;;28.87;32.90
78625;BME280;67944;0.000;0.000;2023-07-09T09:47:11;100970.63;;;28.90;32.99
78625;BME280;67944;0.000;0.000;2023-07-09T09:49:41;100971.22;;;28.92;32.99
78625;BME280;67944;0.000;0.000;2023-07-09T09:52:18;100975.34;;;28.95;33.06
78625;BME280;67944;0.000;0.000;2023-07-09T09:55:10;100975.72;;;28.98;32.95
78625;BME280;67944;0.000;0.000;2023-07-09T09:57:36;100976.31;;;29.01;33.02
78625;BME280;67944;0.000;0.000;2023-07-09T10:00:02;100974.19;;;29.03;33.03
78625;BME280;67944;0.000;0.000;2023-07-09T10:02:30;100972.94;;;29.05;32.99
78625;BME280;67944;0.000;0.000;2023-07-09T10:04:56;100967.13;;;29.08;32.76
78625;BME280;67944;0.000;0.000;2023-07-09T10:07:37;100960.50;;;29.11;32.61
78625;BME280;67944;0.000;0.000;2023-07-09T10:10:13;100956.53;;;29.13;33.01
78625;BME280;67944;0.000;0.000;2023-07-09T10:12:51;100959.00;;;29.15;32.30
78625;BME280;67944;0.000;0.000;2023-07-09T10:15:42;100945.16;;;29.18;32.41
78625;BME280;67944;0.000;0.000;2023-07-09T10:21:12;100938.03;;;29.23;32.32
78625;BME280;67944;0.000;0.000;2023-07-09T10:27:02;100935.50;;;29.28;32.47
78625;BME280;67944;0.000;0.000;2023-07-09T10:29:51;100943.09;;;29.31;32.15
78625;BME280;67944;0.000;0.000;2023-07-09T10:35:40;100926.31;;;29.36;32.46
78625;BME280;67944;0.000;0.000;2023-07-09T10:40:56;100921.13;;;29.41;32.23
78625;BME280;67944;0.000;0.000;2023-07-09T10:43:50;100917.19;;;29.44;32.20
78625;BME280;67944;0.000;0.000;2023-07-09T10:46:24;100921.25;;;29.46;32.08
78625;BME280;67944;0.000;0.000;2023-07-09T10:48:53;100918.34;;;29.48;31.95
78625;BME280;67944;0.000;0.000;2023-07-09T10:51:32;100916.00;;;29.51;31.98
78625;BME280;67944;0.000;0.000;2023-07-09T10:54:10;100918.25;;;29.54;32.28
78625;BME280;67944;0.000;0.000;2023-07-09T10:56:38;100921.53;;;29.56;32.23
78625;BME280;67944;0.000;0.000;2023-07-09T10:59:31;100917.56;;;29.59;32.33
78625;BME280;67944;0.000;0.000;2023-07-09T11:02:24;100913.59;;;29.61;32.21
78625;BME280;67944;0.000;0.000;2023-07-09T11:04:59;100908.84;;;29.63;31.73
78625;BME280;67944;0.000;0.000;2023-07-09T11:10:41;100895.50;;;29.68;32.34
78625;BME280;67944;0.000;0.000;2023-07-09T11:13:15;100896.94;;;29.71;32.11
78625;BME280;67944;0.000;0.000;2023-07-09T11:15:48;100891.31;;;29.73;31.73
78625;BME280;67944;0.000;0.000;2023-07-09T11:18:25;100887.38;;;29.75;32.07
78625;BME280;67944;0.000;0.000;2023-07-09T11:21:07;100889.59;;;29.78;31.55
78625;BME280;67944;0.000;0.000;2023-07-09T11:23:46;100889.94;;;29.82;32.06
78625;BME280;67944;0.000;0.000;2023-07-09T11:26:33;100888.91;;;29.83;31.78
78625;BME280;67944;0.000;0.000;2023-07-09T11:34:02;100888.78;;;29.89;31.44
78625;BME280;67944;0.000;0.000;2023-07-09T11:36:33;100886.69;;;29.91;31.26
78625;BME280;67944;0.000;0.000;2023-07-09T11:38:59;100881.66;;;29.95;31.39
78625;BME280;67944;0.000;0.000;2023-07-09T11:41:40;100887.63;;;29.97;32.03
78625;BME280;67944;0.000;0.000;2023-07-09T11:44:27;100891.75;;;29.99;31.40
78625;BME280;67944;0.000;0.000;2023-07-09T11:47:19;100891.53;;;30.01;31.89
78625;BME280;67944;0.000;0.000;2023-07-09T11:52:26;100878.44;;;30.05;31.78
78625;BME280;67944;0.000;0.000;2023-07-09T11:54:53;100880.66;;;30.08;31.50
78625;BME280;67944;0.000;0.000;2023-07-09T11:57:19;100874.25;;;30.09;31.81
78625;BME280;67944;0.000;0.000;2023-07-09T11:59:45;100866.75;;;30.11;31.11
78625;BME280;67944;0.000;0.000;2023-07-09T12:02:33;100883.22;;;30.14;31.20
78625;BME280;67944;0.000;0.000;2023-07-09T12:04:59;100879.47;;;30.15;31.22
78625;BME280;67944;0.000;0.000;2023-07-09T12:07:25;100858.56;;;30.17;31.06
78625;BME280;67944;0.000;0.000;2023-07-09T12:09:51;100857.28;;;30.20;31.70
78625;BME280;67944;0.000;0.000;2023-07-09T12:12:26;100859.75;;;30.21;31.50
78625;BME280;67944;0.000;0.000;2023-07-09T12:14:54;100868.41;;;30.23;31.05
78625;BME280;67944;0.000;0.000;2023-07-09T12:17:25;100852.84;;;30.25;30.95
78625;BME280;67944;0.000;0.000;2023-07-09T12:19:52;100855.31;;;30.27;31.14
78625;BME280;67944;0.000;0.000;2023-07-09T12:22:21;100838.94;;;30.28;31.14
78625;BME280;67944;0.000;0.000;2023-07-09T12:24:49;100846.53;;;30.31;30.99
78625;BME280;67944;0.000;0.000;2023-07-09T12:27:19;100838.22;;;30.33;31.12
78625;BME280;67944;0.000;0.000;2023-07-09T12:29:45;100830.97;;;30.33;31.48
78625;BME280;67944;0.000;0.000;2023-07-09T12:32:16;100832.38;;;30.36;31.30
78625;BME280;67944;0.000;0.000;2023-07-09T12:34:47;100826.78;;;30.38;31.19
78625;BME280;67944;0.000;0.000;2023-07-09T12:37:15;100821.41;;;30.38;31.30
78625;BME280;67944;0.000;0.000;2023-07-09T12:39:40;100814.72;;;30.40;30.52
78625;BME280;67944;0.000;0.000;2023-07-09T12:42:16;100808.31;;;30.41;30.97
78625;BME280;67944;0.000;0.000;2023-07-09T12:44:42;100812.63;;;30.42;30.47
78625;BME280;67944;0.000;0.000;2023-07-09T12:47:13;100798.13;;;30.43;30.85
78625;BME280;67944;0.000;0.000;2023-07-09T12:49:42;100806.78;;;30.45;30.87
78625;BME280;67944;0.000;0.000;2023-07-09T12:52:21;100787.72;;;30.47;30.86
78625;BME280;67944;0.000;0.000;2023-07-09T12:54:57;100792.06;;;30.48;30.80
78625;BME280;67944;0.000;0.000;2023-07-09T12:57:23;100788.31;;;30.49;30.69
78625;BME280;67944;0.000;0.000;2023-07-09T12:59:49;100781.88;;;30.50;30.92
78625;BME280;67944;0.000;0.000;2023-07-09T13:02:21;100780.81;;;30.51;31.08
78625;BME280;67944;0.000;0.000;2023-07-09T13:04:47;100782.19;;;30.53;30.68
78625;BME280;67944;0.000;0.000;2023-07-09T13:07:27;100772.25;;;30.54;30.80
78625;BME280;67944;0.000;0.000;2023-07-09T13:09:56;100771.81;;;30.57;30.28
78625;BME280;67944;0.000;0.000;2023-07-09T13:12:30;100776.13;;;30.58;30.86
78625;BME280;67944;0.000;0.000;2023-07-09T13:14:57;100773.22;;;30.59;30.72
78625;BME280;67944;0.000;0.000;2023-07-09T13:17:23;100774.03;;;30.60;30.61
78625;BME280;67944;0.000;0.000;2023-07-09T13:19:48;100776.25;;;30.63;30.73
78625;BME280;67944;0.000;0.000;2023-07-09T13:22:17;100767.13;;;30.64;30.38
78625;BME280;67944;0.000;0.000;2023-07-09T13:24:45;100765.84;;;30.66;30.26
78625;BME280;67944;0.000;0.000;2023-07-09T13:27:12;100762.31;;;30.66;30.91
78625;BME280;67944;0.000;0.000;2023-07-09T13:29:39;100765.59;;;30.68;30.75
78625;BME280;67944;0.000;0.000;2023-07-09T13:32:10;100764.53;;;30.69;30.38
78625;BME280;67944;0.000;0.000;2023-07-09T13:34:36;100766.16;;;30.70;30.58
78625;BME280;67944;0.000;0.000;2023-07-09T13:37:01;100759.50;;;30.73;30.15
78625;BME280;67944;0.000;0.000;2023-07-09T13:39:27;100761.13;;;30.74;30.49
78625;BME280;67944;0.000;0.000;2023-07-09T13:41:53;100761.69;;;30.76;30.24